首页
METAR-TAF:

METAR-TAF

机场 :

卡拉卡斯, 委内瑞拉

迈克蒂亚西蒙·玻利瓦尔国际机场

纬度: 10-36N, 经度: 066-59W, 海拔: 43米

当前天气观测

该预报发布于1小时和15分钟前的12:00 UTC
静风
温度 26°C
湿度 84%
气压 1012 hPa
能见度10公里或以上
散云层高于1600英尺

METAR: SVMI 171200Z 00000KT 9999 SCT016 26/23 Q1012

时间: 09:15 (13:15 UTC)

预报

该预报发布于15小时和15分钟前的22:00 UTC
预报有效从17日的 00点(UTC)到 18日的 00点(UTC)
风速10节,风向东北
能见度10公里或以上
散云层高于1600英尺
成为
从 17日的 00点(UTC)到 17日的 04点(UTC)
风速7节,风向
多云层高于1600英尺

TAF: SVMI 162200Z 1700/1800 04010KT 9999 SCT016 TX32/19Z TN23/09Z BECMG 1700/1704 09007KT BKN016

超过4000个机场的气象观测和天气预报(METAR&TAF报告)。

可查询的气象台以黄色和红色小点在地图上表示。

将鼠标移到小点上方,可查看气象台名称。

然后点击查看天气观测和预报。

如需切换地图:点击带黑十字的绿色按钮放大地图;点击带横线的绿色按钮缩小地图;或者点击绿色箭头查看邻近地区的地图。


METAR-TAF: